createdAt,value
2023-04-20T00:01:57.180Z,20.10
2023-04-20T00:04:25.150Z,20.10
2023-04-20T00:06:53.388Z,20.80
2023-04-20T00:09:21.225Z,23.40
2023-04-20T00:11:49.756Z,20.30
2023-04-20T00:14:17.741Z,19.00
2023-04-20T00:16:46.474Z,22.50
2023-04-20T00:19:14.495Z,23.20
2023-04-20T00:21:42.591Z,23.80
2023-04-20T00:24:10.912Z,21.50
2023-04-20T00:26:38.856Z,22.80
2023-04-20T00:29:07.481Z,22.90
2023-04-20T00:31:35.419Z,22.10
2023-04-20T00:34:03.286Z,24.80
2023-04-20T00:36:31.764Z,27.00
2023-04-20T00:38:59.919Z,25.60
2023-04-20T00:41:30.081Z,26.30
2023-04-20T00:44:00.002Z,26.50
2023-04-20T00:46:28.327Z,34.50
2023-04-20T00:48:56.660Z,25.50
2023-04-20T00:51:24.746Z,24.40
2023-04-20T00:53:52.765Z,31.20
2023-04-20T00:56:21.065Z,26.80
2023-04-20T00:58:49.165Z,26.50
2023-04-20T01:01:20.179Z,25.60
2023-04-20T01:06:17.661Z,25.60
2023-04-20T01:08:48.583Z,25.00
2023-04-20T01:11:17.919Z,24.40
2023-04-20T01:13:46.086Z,24.80
2023-04-20T01:16:14.106Z,28.00
2023-04-20T01:18:47.446Z,25.70
2023-04-20T01:21:17.882Z,23.10
2023-04-20T01:23:46.156Z,29.80
2023-04-20T01:26:17.175Z,24.90
2023-04-20T01:28:46.024Z,27.10
2023-04-20T01:31:16.635Z,24.90
2023-04-20T01:33:44.613Z,27.80
2023-04-20T01:36:13.581Z,29.80
2023-04-20T01:38:41.851Z,29.80
2023-04-20T01:41:10.924Z,32.00
2023-04-20T01:43:39.866Z,26.10
2023-04-20T01:46:07.907Z,22.20
2023-04-20T01:48:35.908Z,28.20
2023-04-20T01:51:04.074Z,25.60
2023-04-20T01:53:32.171Z,27.20
2023-04-20T01:56:00.707Z,40.20
2023-04-20T01:58:28.994Z,28.30
2023-04-20T02:00:57.223Z,24.80
2023-04-20T02:03:25.590Z,21.50
2023-04-20T02:05:55.642Z,35.30
2023-04-20T02:08:23.583Z,28.10
2023-04-20T02:10:51.384Z,26.20
2023-04-20T02:13:19.258Z,24.80
2023-04-20T02:15:47.274Z,25.80
2023-04-20T02:18:16.315Z,29.30
2023-04-20T02:20:45.562Z,24.70
2023-04-20T02:23:13.527Z,26.90
2023-04-20T02:25:41.612Z,24.10
2023-04-20T02:28:09.411Z,24.30
2023-04-20T02:30:39.748Z,26.00
2023-04-20T02:33:07.708Z,24.40
2023-04-20T02:35:35.781Z,22.90
2023-04-20T02:38:04.410Z,25.60
2023-04-20T02:40:32.326Z,25.90
2023-04-20T02:43:00.210Z,25.90
2023-04-20T02:45:30.871Z,29.70
2023-04-20T02:47:59.642Z,24.60
2023-04-20T02:50:28.476Z,32.20
2023-04-20T02:53:07.922Z,28.10
2023-04-20T02:55:37.104Z,35.00
2023-04-20T02:58:11.239Z,27.20
2023-04-20T03:01:10.443Z,29.00
2023-04-20T03:03:39.750Z,27.30
2023-04-20T03:06:10.854Z,36.40
2023-04-20T03:08:40.745Z,31.60
2023-04-20T03:11:28.696Z,28.70
2023-04-20T03:13:57.788Z,36.60
2023-04-20T03:16:25.934Z,55.40
2023-04-20T03:18:56.553Z,64.20
2023-04-20T03:21:24.882Z,59.00
2023-04-20T03:23:52.920Z,66.80
2023-04-20T03:26:20.879Z,50.50
2023-04-20T03:29:07.618Z,81.10
2023-04-20T03:31:36.129Z,70.80
2023-04-20T03:34:04.653Z,47.30
2023-04-20T03:36:32.670Z,41.20
2023-04-20T03:39:00.691Z,33.90
2023-04-20T03:41:31.052Z,39.80
2023-04-20T03:43:58.952Z,59.60
2023-04-20T03:46:27.304Z,72.20
2023-04-20T03:48:55.478Z,94.40
2023-04-20T03:51:24.713Z,75.20
2023-04-20T03:53:52.658Z,68.60
2023-04-20T03:56:21.065Z,65.30
2023-04-20T03:58:49.627Z,57.20
2023-04-20T04:01:20.551Z,56.80
2023-04-20T04:03:50.970Z,45.10
2023-04-20T04:06:19.258Z,43.70
2023-04-20T04:08:47.219Z,37.80
2023-04-20T04:11:15.116Z,43.70
2023-04-20T04:13:43.313Z,36.30
2023-04-20T04:16:11.303Z,35.10
2023-04-20T04:18:44.319Z,45.40
2023-04-20T04:21:12.385Z,48.50
2023-04-20T04:23:42.688Z,53.40
2023-04-20T04:26:31.927Z,48.40
2023-04-20T04:29:00.249Z,55.10
2023-04-20T04:31:29.722Z,50.30
2023-04-20T04:34:05.238Z,44.40
2023-04-20T04:36:42.112Z,35.70
2023-04-20T04:39:12.332Z,33.80
2023-04-20T04:41:42.312Z,36.80
2023-04-20T04:44:18.860Z,33.60
2023-04-20T04:46:47.889Z,29.20
2023-04-20T04:49:16.313Z,23.90
2023-04-20T04:51:44.616Z,33.90
2023-04-20T04:54:12.752Z,28.50
2023-04-20T04:56:40.715Z,35.30
2023-04-20T04:59:08.632Z,33.10
2023-04-20T05:01:36.606Z,35.90
2023-04-20T05:04:04.708Z,27.60
2023-04-20T05:06:33.236Z,29.20
2023-04-20T05:09:01.106Z,39.20
2023-04-20T05:11:29.023Z,30.20
2023-04-20T05:13:56.874Z,21.70
2023-04-20T05:16:24.899Z,22.60
2023-04-20T05:18:52.985Z,19.70
2023-04-20T05:21:20.997Z,22.00
2023-04-20T05:23:48.879Z,17.20
2023-04-20T05:26:17.391Z,26.60
2023-04-20T05:28:45.330Z,22.50
2023-04-20T05:31:13.155Z,20.70
2023-04-20T05:33:41.268Z,23.50
2023-04-20T05:36:10.569Z,22.20
2023-04-20T05:38:38.921Z,26.80
2023-04-20T05:41:06.986Z,26.10
2023-04-20T05:43:35.014Z,21.20
2023-04-20T05:46:03.037Z,20.90
2023-04-20T05:48:31.348Z,19.60
2023-04-20T05:50:59.313Z,18.30
2023-04-20T05:53:27.334Z,22.40
2023-04-20T05:55:55.285Z,21.00
2023-04-20T05:58:23.663Z,19.40
2023-04-20T06:00:51.588Z,19.60
2023-04-20T06:03:19.720Z,17.30
2023-04-20T06:05:48.307Z,11.50
2023-04-20T06:08:16.165Z,18.40
2023-04-20T06:10:43.965Z,15.10
2023-04-20T06:13:11.802Z,11.70
2023-04-20T06:15:39.820Z,15.20
2023-04-20T06:18:07.809Z,17.90
2023-04-20T06:20:35.736Z,13.20
2023-04-20T06:23:07.149Z,15.80
2023-04-20T06:25:36.496Z,15.30
2023-04-20T06:28:05.349Z,16.00
2023-04-20T06:30:34.661Z,14.20
2023-04-20T06:33:03.565Z,13.70
2023-04-20T06:35:31.752Z,13.10
2023-04-20T06:37:59.668Z,16.50
2023-04-20T06:40:28.672Z,15.60
2023-04-20T06:42:56.672Z,12.20
2023-04-20T06:45:24.619Z,13.20
2023-04-20T06:47:52.590Z,13.60
2023-04-20T06:50:20.803Z,14.40
2023-04-20T06:52:48.790Z,14.60
2023-04-20T06:55:17.809Z,11.40
2023-04-20T06:57:45.725Z,12.70
2023-04-20T07:00:14.148Z,13.30
2023-04-20T07:02:46.697Z,15.60
2023-04-20T07:05:15.792Z,19.10
2023-04-20T07:07:44.509Z,15.80
2023-04-20T07:10:14.896Z,12.40
2023-04-20T07:12:44.197Z,15.00
2023-04-20T07:15:13.005Z,13.60
2023-04-20T07:17:41.211Z,16.80
2023-04-20T07:20:09.520Z,19.30
2023-04-20T07:22:39.239Z,13.70
2023-04-20T07:25:09.024Z,20.00
2023-04-20T07:27:38.978Z,16.90
2023-04-20T07:30:08.939Z,15.20
2023-04-20T07:32:38.363Z,13.60
2023-04-20T07:35:06.927Z,16.90
2023-04-20T07:37:34.803Z,17.50
2023-04-20T07:40:07.141Z,18.00
2023-04-20T07:45:20.294Z,24.40
2023-04-20T07:47:51.625Z,13.80
2023-04-20T07:50:19.698Z,14.40
2023-04-20T07:52:47.585Z,16.20
2023-04-20T07:55:17.313Z,13.00
2023-04-20T07:57:45.409Z,17.80
2023-04-20T08:00:15.162Z,13.50
2023-04-20T08:02:45.879Z,10.70
2023-04-20T08:05:14.174Z,14.70
2023-04-20T08:07:42.615Z,14.80
2023-04-20T08:10:11.179Z,14.50
2023-04-20T08:12:39.957Z,13.20
2023-04-20T08:15:09.144Z,11.00
2023-04-20T08:17:37.185Z,10.00
2023-04-20T08:20:06.432Z,9.60
2023-04-20T08:22:34.422Z,11.30
2023-04-20T08:25:02.505Z,12.20
2023-04-20T08:27:30.819Z,8.40
2023-04-20T08:29:58.808Z,11.30
2023-04-20T08:32:27.135Z,20.80
2023-04-20T08:34:56.316Z,10.20
2023-04-20T08:37:25.671Z,11.00
2023-04-20T08:39:53.566Z,10.60
2023-04-20T08:42:21.622Z,9.80
2023-04-20T08:44:49.621Z,11.70
2023-04-20T08:47:17.656Z,10.20
2023-04-20T08:49:47.794Z,10.70
2023-04-20T08:52:15.857Z,10.70
2023-04-20T08:54:55.354Z,10.00
2023-04-20T08:57:26.056Z,13.20
2023-04-20T08:59:54.022Z,9.80
2023-04-20T09:02:22.953Z,8.90
2023-04-20T09:05:05.238Z,12.30
2023-04-20T09:07:33.829Z,14.00
2023-04-20T09:10:02.158Z,11.30
2023-04-20T09:12:41.820Z,11.60
2023-04-20T09:15:10.975Z,8.00
2023-04-20T09:17:42.094Z,9.60
2023-04-20T09:20:11.494Z,9.80
2023-04-20T09:22:41.074Z,11.40
2023-04-20T09:25:20.213Z,7.90
2023-04-20T09:28:02.202Z,9.40
2023-04-20T09:30:41.657Z,10.10
2023-04-20T09:33:12.554Z,7.90
2023-04-20T09:35:45.031Z,7.60
2023-04-20T09:38:16.692Z,9.20
2023-04-20T09:40:44.697Z,8.70
2023-04-20T09:43:19.110Z,6.60
2023-04-20T09:45:47.384Z,9.00
2023-04-20T09:48:19.335Z,9.80
2023-04-20T09:50:50.526Z,11.80
2023-04-20T09:53:20.162Z,8.90
2023-04-20T09:55:49.919Z,8.50
2023-04-20T09:58:20.553Z,8.30
2023-04-20T10:00:49.169Z,8.70
2023-04-20T10:03:18.907Z,7.70
2023-04-20T10:05:47.342Z,9.10
2023-04-20T10:08:15.434Z,9.80
2023-04-20T10:10:49.083Z,9.20
2023-04-20T10:13:19.756Z,13.00
2023-04-20T10:15:48.010Z,7.10
2023-04-20T10:18:24.593Z,9.80
2023-04-20T10:21:06.491Z,7.90
2023-04-20T10:23:34.919Z,10.30
2023-04-20T10:26:03.942Z,20.30
2023-04-20T10:28:44.470Z,9.40
2023-04-20T10:31:14.275Z,10.40
2023-04-20T10:33:56.355Z,7.30
2023-04-20T10:36:31.019Z,10.50
2023-04-20T10:39:00.640Z,11.40
2023-04-20T10:41:28.649Z,7.50
2023-04-20T10:44:09.900Z,7.60
2023-04-20T10:46:38.012Z,7.80
2023-04-20T10:49:06.692Z,8.00
2023-04-20T10:51:34.641Z,5.70
2023-04-20T10:54:06.775Z,11.50
2023-04-20T10:56:42.785Z,9.50
2023-04-20T10:59:15.038Z,11.50
2023-04-20T11:01:44.538Z,5.20
2023-04-20T11:04:15.574Z,5.50
2023-04-20T11:06:48.384Z,8.10
2023-04-20T11:09:22.763Z,7.60
2023-04-20T11:12:05.249Z,7.60
2023-04-20T11:14:38.353Z,8.90
2023-04-20T11:17:06.911Z,7.50
2023-04-20T11:19:37.186Z,6.80
2023-04-20T11:22:06.543Z,8.90
2023-04-20T11:24:35.950Z,7.70
2023-04-20T11:27:05.138Z,9.20
2023-04-20T11:29:38.834Z,7.00
2023-04-20T11:32:09.931Z,6.60
2023-04-20T11:34:39.422Z,8.30
2023-04-20T11:37:10.599Z,8.90
2023-04-20T11:39:39.794Z,7.50
2023-04-20T11:42:07.776Z,9.40
2023-04-20T11:44:36.732Z,9.60
2023-04-20T11:47:05.075Z,9.10
2023-04-20T11:49:32.915Z,6.00
2023-04-20T11:52:01.310Z,10.70
2023-04-20T11:54:30.761Z,8.20
2023-04-20T11:56:59.261Z,8.50
2023-04-20T11:59:27.261Z,10.10
2023-04-20T12:01:55.318Z,8.30
2023-04-20T12:04:23.640Z,9.80
2023-04-20T12:06:52.031Z,11.90
2023-04-20T12:09:20.144Z,10.20
2023-04-20T12:11:48.456Z,14.20
2023-04-20T12:14:16.425Z,13.50
2023-04-20T12:16:44.555Z,8.20
2023-04-20T12:19:12.564Z,6.00
2023-04-20T12:21:40.355Z,10.50
2023-04-20T12:24:08.372Z,7.80
2023-04-20T12:26:38.686Z,7.50
2023-04-20T12:31:36.614Z,8.60
2023-04-20T12:34:05.082Z,10.20
2023-04-20T12:36:35.216Z,10.50
2023-04-20T12:39:03.790Z,7.80
2023-04-20T12:41:31.805Z,7.20
2023-04-20T12:44:01.538Z,7.20
2023-04-20T12:46:30.856Z,11.40
2023-04-20T12:48:58.994Z,5.70
2023-04-20T12:51:27.274Z,6.20
2023-04-20T12:53:55.203Z,12.80
2023-04-20T12:56:23.133Z,9.20
2023-04-20T12:58:51.007Z,7.20
2023-04-20T13:01:19.176Z,12.90
2023-04-20T13:03:47.233Z,11.90
2023-04-20T13:06:15.561Z,9.70
2023-04-20T13:08:43.392Z,13.70
2023-04-20T13:11:12.275Z,9.50
2023-04-20T13:13:40.303Z,11.20
2023-04-20T13:16:08.300Z,10.60
2023-04-20T13:18:36.335Z,11.20
2023-04-20T13:21:04.349Z,11.20
2023-04-20T13:23:32.171Z,15.10
2023-04-20T13:26:01.718Z,10.00
2023-04-20T13:28:29.873Z,15.70
2023-04-20T13:30:57.898Z,9.30
2023-04-20T13:33:26.413Z,13.30
2023-04-20T13:35:54.950Z,12.80
2023-04-20T13:38:22.825Z,15.50
2023-04-20T13:40:50.817Z,19.10
2023-04-20T13:43:21.366Z,13.90
2023-04-20T13:45:49.789Z,12.00
2023-04-20T13:48:17.741Z,16.20
2023-04-20T13:50:47.519Z,12.30
2023-04-20T13:53:15.710Z,14.70
2023-04-20T13:55:43.837Z,27.90
2023-04-20T13:58:11.768Z,9.40
2023-04-20T14:00:39.724Z,13.40
2023-04-20T14:03:10.694Z,16.10
2023-04-20T14:05:39.352Z,10.30
2023-04-20T14:08:07.573Z,11.60
2023-04-20T14:10:35.663Z,16.00
2023-04-20T14:13:03.744Z,10.50
2023-04-20T14:15:31.826Z,9.30
2023-04-20T14:18:00.614Z,14.50
2023-04-20T14:20:28.927Z,18.90
2023-04-20T14:22:56.895Z,12.30
2023-04-20T14:25:24.896Z,11.40
2023-04-20T14:27:52.870Z,12.40
2023-04-20T14:30:20.901Z,14.50
2023-04-20T14:32:56.693Z,9.20
2023-04-20T14:35:26.681Z,12.20
2023-04-20T14:37:54.588Z,14.60
2023-04-20T14:40:22.686Z,12.10
2023-04-20T14:42:50.702Z,11.90
2023-04-20T14:45:18.785Z,8.30
2023-04-20T14:47:46.775Z,15.30
2023-04-20T14:50:14.690Z,10.70
2023-04-20T14:52:42.651Z,24.20
2023-04-20T14:55:10.695Z,15.10
2023-04-20T14:57:38.491Z,14.60
2023-04-20T15:00:07.194Z,17.50
2023-04-20T15:02:35.451Z,16.20
2023-04-20T15:07:32.000Z,16.60
2023-04-20T15:10:00.147Z,20.70
2023-04-20T15:12:28.328Z,24.20
2023-04-20T15:14:56.185Z,12.70
2023-04-20T15:17:24.238Z,18.90
2023-04-20T15:19:52.146Z,11.50
2023-04-20T15:22:20.290Z,14.50
2023-04-20T15:24:48.347Z,13.60
2023-04-20T15:27:17.237Z,8.60
2023-04-20T15:29:45.241Z,9.90
2023-04-20T15:32:13.260Z,16.60
2023-04-20T15:34:41.327Z,10.90
2023-04-20T15:37:09.215Z,10.00
2023-04-20T15:39:37.303Z,13.20
2023-04-20T15:42:05.330Z,11.20
2023-04-20T15:44:33.318Z,14.70
2023-04-20T15:47:02.322Z,12.80
2023-04-20T15:49:30.405Z,13.30
2023-04-20T15:51:58.258Z,10.80
2023-04-20T15:54:26.332Z,14.90
2023-04-20T15:56:54.351Z,14.00
2023-04-20T15:59:22.368Z,16.00
2023-04-20T16:01:50.658Z,14.80
2023-04-20T16:04:19.197Z,16.90
2023-04-20T16:06:47.910Z,14.50
2023-04-20T16:09:16.455Z,16.80
2023-04-20T16:11:44.406Z,12.70
2023-04-20T16:14:12.340Z,20.80
2023-04-20T16:16:40.637Z,16.30
2023-04-20T16:19:08.801Z,12.20
2023-04-20T16:21:36.700Z,13.70
2023-04-20T16:24:04.865Z,10.40
2023-04-20T16:26:33.517Z,15.30
2023-04-20T16:29:01.427Z,14.50
2023-04-20T16:31:29.738Z,16.70
2023-04-20T16:33:58.796Z,14.70
2023-04-20T16:36:27.269Z,15.10
2023-04-20T16:38:55.140Z,13.20
2023-04-20T16:41:23.278Z,19.10
2023-04-20T16:43:51.262Z,13.50
2023-04-20T16:46:22.387Z,22.40
2023-04-20T16:48:51.195Z,20.50
2023-04-20T16:51:19.105Z,18.90
2023-04-20T16:53:47.051Z,11.30
2023-04-20T16:56:16.530Z,13.60
2023-04-20T16:58:44.473Z,17.50
2023-04-20T17:01:13.905Z,18.50
2023-04-20T17:03:42.185Z,17.20
2023-04-20T17:06:10.616Z,16.50
2023-04-20T17:08:38.549Z,24.40
2023-04-20T17:11:06.500Z,15.30
2023-04-20T17:13:34.875Z,14.70
2023-04-20T17:16:02.975Z,22.10
2023-04-20T17:18:34.134Z,17.70
2023-04-20T17:21:02.330Z,19.20
2023-04-20T17:23:30.423Z,16.70
2023-04-20T17:25:58.430Z,20.20
2023-04-20T17:28:26.639Z,18.30
2023-04-20T17:30:54.589Z,18.20
2023-04-20T17:33:23.023Z,19.00
2023-04-20T17:35:51.142Z,22.60
2023-04-20T17:38:19.095Z,19.40
2023-04-20T17:40:47.103Z,14.10
2023-04-20T17:43:15.023Z,22.80
2023-04-20T17:45:42.979Z,18.80
2023-04-20T17:48:11.003Z,16.40
2023-04-20T17:50:38.931Z,15.10
2023-04-20T17:53:08.471Z,24.00
2023-04-20T17:55:36.605Z,19.70
2023-04-20T17:58:04.469Z,23.60
2023-04-20T18:00:32.354Z,19.40
2023-04-20T18:03:00.647Z,18.20
2023-04-20T18:05:28.728Z,18.20
2023-04-20T18:07:57.938Z,22.40
2023-04-20T18:10:26.223Z,21.40
2023-04-20T18:12:54.378Z,19.40
2023-04-20T18:15:22.401Z,18.90
2023-04-20T18:17:50.719Z,24.60
2023-04-20T18:20:19.322Z,26.00
2023-04-20T18:22:50.260Z,30.70
2023-04-20T18:25:19.580Z,31.70
2023-04-20T18:27:47.627Z,33.30
2023-04-20T18:30:16.306Z,31.20
2023-04-20T18:32:44.521Z,33.90
2023-04-20T18:35:12.585Z,30.20
2023-04-20T18:37:40.773Z,32.40
2023-04-20T18:40:09.097Z,39.20
2023-04-20T18:42:37.060Z,32.20
2023-04-20T18:45:06.304Z,31.20
2023-04-20T18:47:34.821Z,30.90
2023-04-20T18:50:03.276Z,24.20
2023-04-20T18:52:35.053Z,21.00
2023-04-20T18:55:04.180Z,21.80
2023-04-20T18:57:32.603Z,20.70
2023-04-20T19:00:00.689Z,25.30
2023-04-20T19:02:32.939Z,18.60
2023-04-20T19:05:01.078Z,22.20
2023-04-20T19:07:29.041Z,25.40
2023-04-20T19:09:56.961Z,18.80
2023-04-20T19:12:25.074Z,23.10
2023-04-20T19:14:53.427Z,26.10
2023-04-20T19:17:21.940Z,20.00
2023-04-20T19:19:51.117Z,27.60
2023-04-20T19:22:18.998Z,20.90
2023-04-20T19:24:46.982Z,28.80
2023-04-20T19:27:14.962Z,24.50
2023-04-20T19:29:42.873Z,20.00
2023-04-20T19:32:10.821Z,19.10
2023-04-20T19:34:38.877Z,23.70
2023-04-20T19:37:06.764Z,18.40
2023-04-20T19:39:34.930Z,16.30
2023-04-20T19:42:02.871Z,13.60
2023-04-20T19:44:31.145Z,17.40
2023-04-20T19:46:59.067Z,26.00
2023-04-20T19:49:26.908Z,15.30
2023-04-20T19:51:55.291Z,19.10
2023-04-20T19:54:24.421Z,21.70
2023-04-20T19:56:53.954Z,16.80
2023-04-20T19:59:21.826Z,13.50
2023-04-20T20:01:50.813Z,13.30
2023-04-20T20:04:21.538Z,17.90
2023-04-20T20:06:51.367Z,20.40
2023-04-20T20:09:24.374Z,23.50
2023-04-20T20:11:53.729Z,22.00
2023-04-20T20:14:23.975Z,17.00
2023-04-20T20:16:51.965Z,14.60
2023-04-20T20:19:24.557Z,18.90
2023-04-20T20:21:52.873Z,22.40
2023-04-20T20:24:23.150Z,17.80
2023-04-20T20:26:51.399Z,11.90
2023-04-20T20:29:19.535Z,16.70
2023-04-20T20:31:47.851Z,11.50
2023-04-20T20:34:15.985Z,13.10
2023-04-20T20:36:45.901Z,23.90
2023-04-20T20:39:15.640Z,12.50
2023-04-20T20:41:43.593Z,15.60
2023-04-20T20:44:19.294Z,14.30
2023-04-20T20:46:47.857Z,13.40
2023-04-20T20:49:16.197Z,12.20
2023-04-20T20:51:44.336Z,14.30
2023-04-20T20:54:12.226Z,17.40
2023-04-20T20:56:40.134Z,14.70
2023-04-20T20:59:08.087Z,13.50
2023-04-20T21:01:35.942Z,19.70
2023-04-20T21:04:04.906Z,21.60
2023-04-20T21:06:33.797Z,14.70
2023-04-20T21:09:02.858Z,18.20
2023-04-20T21:11:30.774Z,21.00
2023-04-20T21:14:01.828Z,19.30
2023-04-20T21:16:30.807Z,17.00
2023-04-20T21:18:59.511Z,12.10
2023-04-20T21:21:47.223Z,15.60
2023-04-20T21:24:15.815Z,12.30
2023-04-20T21:26:43.812Z,14.00
2023-04-20T21:29:12.031Z,16.70
2023-04-20T21:31:51.332Z,20.50
2023-04-20T21:34:32.064Z,23.00
2023-04-20T21:37:09.106Z,13.50
2023-04-20T21:39:39.825Z,17.90
2023-04-20T21:42:09.519Z,16.50
2023-04-20T21:44:37.350Z,16.80
2023-04-20T21:47:05.379Z,14.20
2023-04-20T21:49:33.416Z,16.60
2023-04-20T21:52:01.361Z,19.10
2023-04-20T21:54:29.324Z,19.20
2023-04-20T21:57:01.924Z,15.10
2023-04-20T21:59:29.806Z,13.40
2023-04-20T22:01:58.890Z,12.70
2023-04-20T22:04:27.472Z,17.20
2023-04-20T22:07:01.032Z,13.10
2023-04-20T22:09:31.997Z,20.00
2023-04-20T22:12:13.319Z,17.50
2023-04-20T22:14:48.173Z,15.90
2023-04-20T22:17:16.434Z,14.80
2023-04-20T22:19:44.481Z,18.70
2023-04-20T22:22:12.462Z,11.80
2023-04-20T22:24:42.810Z,18.40
2023-04-20T22:27:11.171Z,17.90
2023-04-20T22:29:44.599Z,18.20
2023-04-20T22:32:20.477Z,16.90
2023-04-20T22:34:49.670Z,18.30
2023-04-20T22:37:17.734Z,16.80
2023-04-20T22:42:19.234Z,11.60
2023-04-20T22:47:25.261Z,13.30
2023-04-20T22:49:53.620Z,21.60
2023-04-20T22:52:28.854Z,17.10
2023-04-20T22:55:09.666Z,16.50
2023-04-20T22:57:39.153Z,15.60
2023-04-20T23:00:15.492Z,14.90
2023-04-20T23:02:43.766Z,23.90
2023-04-20T23:05:11.962Z,23.60
2023-04-20T23:07:39.987Z,24.20
2023-04-20T23:10:09.155Z,18.30
2023-04-20T23:12:38.373Z,28.30
2023-04-20T23:15:06.860Z,20.00
2023-04-20T23:17:34.813Z,24.60
2023-04-20T23:20:02.979Z,20.60
2023-04-20T23:22:30.940Z,20.80
2023-04-20T23:24:58.877Z,19.50
2023-04-20T23:27:26.648Z,22.50
2023-04-20T23:29:54.597Z,28.10
2023-04-20T23:32:22.713Z,27.80
2023-04-20T23:34:51.119Z,32.60
2023-04-20T23:37:18.921Z,23.50
2023-04-20T23:39:46.885Z,28.90
2023-04-20T23:42:14.798Z,40.80
2023-04-20T23:44:42.601Z,36.10
2023-04-20T23:47:10.783Z,27.40
2023-04-20T23:49:38.572Z,24.80
2023-04-20T23:52:06.723Z,24.20
2023-04-20T23:54:34.640Z,23.90
2023-04-20T23:57:03.346Z,22.00
2023-04-20T23:59:31.349Z,16.90
